createdAt,value
2018-10-18T00:00:07.081Z,99358.07
2018-10-18T00:02:36.409Z,99362.69
2018-10-18T00:05:07.177Z,99366.94
2018-10-18T00:07:36.714Z,99361.16
2018-10-18T00:10:07.640Z,99360.98
2018-10-18T00:12:36.791Z,99352.35
2018-10-18T00:15:07.016Z,99345.02
2018-10-18T00:17:41.040Z,99344.83
2018-10-18T00:20:10.362Z,99348.65
2018-10-18T00:22:39.404Z,99347.41
2018-10-18T00:25:08.610Z,99348.82
2018-10-18T00:27:38.367Z,99350.23
2018-10-18T00:30:09.719Z,99355.66
2018-10-18T00:32:38.857Z,99349.62
2018-10-18T00:35:08.442Z,99347.81
2018-10-18T00:40:19.460Z,99336.16
2018-10-18T00:42:48.720Z,99335.94
2018-10-18T00:45:17.922Z,99331.28
2018-10-18T00:47:47.225Z,99327.55
2018-10-18T00:50:16.463Z,99323.19
2018-10-18T00:52:45.848Z,99326.44
2018-10-18T00:55:15.544Z,99320.09
2018-10-18T00:57:44.645Z,99320.11
2018-10-18T01:00:13.985Z,99320.03
2018-10-18T01:02:43.399Z,99313.77
2018-10-18T01:05:12.902Z,99310.70
2018-10-18T01:07:42.090Z,99307.27
2018-10-18T01:10:11.217Z,99304.17
2018-10-18T01:12:40.531Z,99311.69
2018-10-18T01:15:09.591Z,99304.66
2018-10-18T01:17:39.049Z,99299.17
2018-10-18T01:20:08.267Z,99300.09
2018-10-18T01:22:37.451Z,99292.89
2018-10-18T01:25:07.358Z,99296.95
2018-10-18T01:27:36.431Z,99295.84
2018-10-18T01:30:06.066Z,99291.89
2018-10-18T01:32:35.697Z,99285.27
2018-10-18T01:35:04.841Z,99287.83
2018-10-18T01:37:33.918Z,99288.33
2018-10-18T01:40:03.349Z,99290.50
2018-10-18T01:42:32.470Z,99284.76
2018-10-18T01:45:01.664Z,99285.28
2018-10-18T01:47:30.847Z,99281.25
2018-10-18T01:49:59.904Z,99290.06
2018-10-18T01:52:29.091Z,99281.12
2018-10-18T01:54:58.476Z,99283.66
2018-10-18T01:57:27.542Z,99273.05
2018-10-18T01:59:56.786Z,99273.84
2018-10-18T02:02:25.900Z,99269.86
2018-10-18T02:04:55.106Z,99274.46
2018-10-18T02:07:24.353Z,99272.89
2018-10-18T02:09:53.889Z,99265.11
2018-10-18T02:12:23.000Z,99266.46
2018-10-18T02:14:52.572Z,99268.25
2018-10-18T02:17:21.703Z,99264.69
2018-10-18T02:19:50.846Z,99258.95
2018-10-18T02:22:20.076Z,99258.64
2018-10-18T02:24:49.728Z,99262.17
2018-10-18T02:27:18.904Z,99258.59
2018-10-18T02:29:48.036Z,99265.62
2018-10-18T02:32:17.487Z,99263.66
2018-10-18T02:34:46.620Z,99261.05
2018-10-18T02:37:16.024Z,99267.61
2018-10-18T02:39:45.538Z,99269.37
2018-10-18T02:42:14.652Z,99264.31
2018-10-18T02:44:43.770Z,99267.23
2018-10-18T02:47:12.861Z,99266.52
2018-10-18T02:49:42.190Z,99276.86
2018-10-18T02:52:11.712Z,99267.72
2018-10-18T02:54:41.274Z,99263.78
2018-10-18T02:57:10.422Z,99262.81
2018-10-18T02:59:39.865Z,99264.11
2018-10-18T03:02:09.456Z,99250.66
2018-10-18T03:04:38.697Z,99254.60
2018-10-18T03:07:08.149Z,99256.41
2018-10-18T03:09:37.445Z,99248.97
2018-10-18T03:12:19.726Z,99253.77
2018-10-18T03:14:49.159Z,99245.78
2018-10-18T03:17:18.342Z,99241.87
2018-10-18T03:19:47.552Z,99239.81
2018-10-18T03:22:16.769Z,99244.58
2018-10-18T03:24:45.926Z,99242.44
2018-10-18T03:27:15.518Z,99243.15
2018-10-18T03:29:45.146Z,99245.11
2018-10-18T03:32:14.763Z,99242.36
2018-10-18T03:34:43.847Z,99246.57
2018-10-18T03:37:13.089Z,99241.84
2018-10-18T03:39:42.553Z,99234.28
2018-10-18T03:42:11.740Z,99237.59
2018-10-18T03:44:40.929Z,99238.12
2018-10-18T03:47:10.325Z,99233.38
2018-10-18T03:49:39.460Z,99236.97
2018-10-18T03:52:09.181Z,99243.80
2018-10-18T03:54:38.382Z,99239.22
2018-10-18T03:57:07.533Z,99239.03
2018-10-18T03:59:36.789Z,99240.86
2018-10-18T04:02:06.347Z,99246.41
2018-10-18T04:04:35.991Z,99245.24
2018-10-18T04:07:05.805Z,99236.91
2018-10-18T04:09:34.895Z,99239.35
2018-10-18T04:12:04.147Z,99244.91
2018-10-18T04:14:33.247Z,99242.21
2018-10-18T04:17:02.428Z,99242.73
2018-10-18T04:19:31.483Z,99241.61
2018-10-18T04:22:00.689Z,99249.23
2018-10-18T04:24:30.076Z,99241.46
2018-10-18T04:26:59.194Z,99246.98
2018-10-18T04:29:28.409Z,99247.30
2018-10-18T04:31:57.762Z,99240.13
2018-10-18T04:34:26.838Z,99242.23
2018-10-18T04:36:56.906Z,99231.25
2018-10-18T04:39:26.400Z,99235.11
2018-10-18T04:41:55.905Z,99234.81
2018-10-18T04:44:25.098Z,99232.67
2018-10-18T04:46:54.199Z,99235.48
2018-10-18T04:49:23.291Z,99235.98
2018-10-18T04:51:52.831Z,99240.11
2018-10-18T04:54:22.123Z,99239.84
2018-10-18T04:56:51.397Z,99234.55
2018-10-18T04:59:20.585Z,99232.53
2018-10-18T05:01:49.734Z,99242.73
2018-10-18T05:04:18.800Z,99245.33
2018-10-18T05:06:48.382Z,99249.16
2018-10-18T05:09:17.608Z,99255.37
2018-10-18T05:11:46.987Z,99250.98
2018-10-18T05:14:16.480Z,99246.75
2018-10-18T05:16:45.968Z,99253.06
2018-10-18T05:19:15.289Z,99253.39
2018-10-18T05:21:44.763Z,99251.59
2018-10-18T05:24:14.325Z,99250.94
2018-10-18T05:26:43.830Z,99263.73
2018-10-18T05:29:13.010Z,99267.66
2018-10-18T05:31:42.205Z,99265.43
2018-10-18T05:34:11.490Z,99270.61
2018-10-18T05:36:40.718Z,99274.72
2018-10-18T05:39:12.212Z,99277.18
2018-10-18T05:41:41.528Z,99275.00
2018-10-18T05:44:12.702Z,99278.68
2018-10-18T05:46:41.920Z,99284.14
2018-10-18T05:49:11.501Z,99281.75
2018-10-18T05:51:40.606Z,99291.08
2018-10-18T05:54:10.169Z,99299.14
2018-10-18T05:56:39.611Z,99297.08
2018-10-18T05:59:08.828Z,99296.83
2018-10-18T06:01:38.954Z,99296.08
2018-10-18T06:04:08.469Z,99293.42
2018-10-18T06:06:37.640Z,99291.76
2018-10-18T06:09:11.843Z,99299.23
2018-10-18T06:11:40.940Z,99298.54
2018-10-18T06:14:10.086Z,99303.34
2018-10-18T06:16:39.304Z,99301.67
2018-10-18T06:19:08.499Z,99309.27
2018-10-18T06:21:37.581Z,99305.05
2018-10-18T06:24:07.469Z,99301.56
2018-10-18T06:26:36.953Z,99306.16
2018-10-18T06:31:37.009Z,99308.98
2018-10-18T06:34:06.727Z,99307.95
2018-10-18T06:36:35.926Z,99312.78
2018-10-18T06:39:06.814Z,99311.31
2018-10-18T06:41:36.035Z,99306.92
2018-10-18T06:44:05.161Z,99302.20
2018-10-18T06:46:34.684Z,99304.55
2018-10-18T06:49:03.870Z,99312.69
2018-10-18T06:51:32.884Z,99319.45
2018-10-18T06:54:02.079Z,99318.95
2018-10-18T06:56:31.188Z,99329.05
2018-10-18T06:59:00.324Z,99330.11
2018-10-18T07:01:30.006Z,99330.93
2018-10-18T07:03:59.391Z,99331.36
2018-10-18T07:06:28.582Z,99330.23
2018-10-18T07:08:57.844Z,99330.91
2018-10-18T07:11:27.357Z,99332.81
2018-10-18T07:13:56.502Z,99327.84
2018-10-18T07:16:26.357Z,99332.08
2018-10-18T07:18:55.490Z,99332.46
2018-10-18T07:21:24.598Z,99336.76
2018-10-18T07:23:54.103Z,99328.84
2018-10-18T07:26:23.205Z,99331.77
2018-10-18T07:28:52.386Z,99328.52
2018-10-18T07:31:21.866Z,99332.67
2018-10-18T07:33:51.007Z,99336.63
2018-10-18T07:36:20.242Z,99334.40
2018-10-18T07:38:50.056Z,99337.66
2018-10-18T07:41:19.340Z,99331.97
2018-10-18T07:43:48.292Z,99333.07
2018-10-18T07:46:17.785Z,99332.06
2018-10-18T07:48:46.915Z,99339.64
2018-10-18T07:51:16.017Z,99331.77
2018-10-18T07:53:45.227Z,99332.33
2018-10-18T07:56:14.305Z,99332.44
2018-10-18T07:58:43.465Z,99334.61
2018-10-18T08:01:12.884Z,99332.67
2018-10-18T08:03:42.029Z,99333.26
2018-10-18T08:06:11.097Z,99330.83
2018-10-18T08:08:40.476Z,99329.58
2018-10-18T08:11:09.635Z,99316.85
2018-10-18T08:13:38.686Z,99321.64
2018-10-18T08:16:08.089Z,99316.33
2018-10-18T08:18:37.185Z,99319.42
2018-10-18T08:21:06.904Z,99314.14
2018-10-18T08:23:36.302Z,99315.12
2018-10-18T08:26:05.472Z,99316.61
2018-10-18T08:28:34.706Z,99315.83
2018-10-18T08:31:04.181Z,99313.50
2018-10-18T08:33:33.307Z,99315.80
2018-10-18T08:36:02.344Z,99314.97
2018-10-18T08:38:31.817Z,99321.42
2018-10-18T08:41:00.905Z,99316.34
2018-10-18T08:43:30.014Z,99312.85
2018-10-18T08:45:59.356Z,99316.56
2018-10-18T08:48:28.477Z,99321.38
2018-10-18T08:50:57.519Z,99319.27
2018-10-18T08:53:26.947Z,99318.22
2018-10-18T08:55:56.001Z,99313.48
2018-10-18T08:58:25.218Z,99319.64
2018-10-18T09:00:54.880Z,99318.77
2018-10-18T09:03:24.083Z,99316.38
2018-10-18T09:05:53.308Z,99316.73
2018-10-18T09:08:22.774Z,99312.59
2018-10-18T09:10:51.880Z,99307.08
2018-10-18T09:13:21.207Z,99307.28
2018-10-18T09:15:51.108Z,99306.00
2018-10-18T09:18:20.933Z,99292.50
2018-10-18T09:20:50.144Z,99294.14
2018-10-18T09:23:19.713Z,99299.58
2018-10-18T09:25:48.963Z,99294.14
2018-10-18T09:28:18.384Z,99287.62
2018-10-18T09:30:47.799Z,99288.70
2018-10-18T09:33:17.015Z,99288.48
2018-10-18T09:35:46.134Z,99279.95
2018-10-18T09:38:15.753Z,99275.39
2018-10-18T09:40:44.890Z,99272.54
2018-10-18T09:43:14.063Z,99265.76
2018-10-18T09:45:44.653Z,99260.47
2018-10-18T09:48:13.907Z,99269.47
2018-10-18T09:50:43.220Z,99264.50
2018-10-18T09:53:12.455Z,99263.55
2018-10-18T09:55:41.656Z,99257.38
2018-10-18T09:58:10.832Z,99251.15
2018-10-18T10:00:45.157Z,99243.48
2018-10-18T10:03:16.435Z,99247.59
2018-10-18T10:05:45.621Z,99236.23
2018-10-18T10:08:15.363Z,99234.94
2018-10-18T10:10:45.301Z,99228.58
2018-10-18T10:13:14.494Z,99220.00
2018-10-18T10:15:43.790Z,99214.98
2018-10-18T10:18:12.979Z,99216.79
2018-10-18T10:20:42.066Z,99213.27
2018-10-18T10:23:11.270Z,99204.91
2018-10-18T10:25:40.369Z,99203.09
2018-10-18T10:28:09.473Z,99201.20
2018-10-18T10:30:38.765Z,99192.27
2018-10-18T10:33:08.070Z,99196.31
2018-10-18T10:35:37.157Z,99193.73
2018-10-18T10:38:06.797Z,99185.27
2018-10-18T10:40:35.916Z,99183.72
2018-10-18T10:43:05.337Z,99186.37
2018-10-18T10:45:34.733Z,99184.41
2018-10-18T10:48:04.015Z,99180.73
2018-10-18T10:50:33.100Z,99178.78
2018-10-18T10:53:02.741Z,99177.69
2018-10-18T10:55:32.230Z,99168.37
2018-10-18T10:58:01.663Z,99165.45
2018-10-18T11:00:41.240Z,99161.42
2018-10-18T11:03:10.611Z,99159.21
2018-10-18T11:05:39.667Z,99153.98
2018-10-18T11:08:09.219Z,99150.13
2018-10-18T11:10:38.228Z,99147.80
2018-10-18T11:13:07.342Z,99143.12
2018-10-18T11:15:36.739Z,99143.36
2018-10-18T11:18:06.069Z,99144.81
2018-10-18T11:20:35.102Z,99140.86
2018-10-18T11:23:05.331Z,99133.58
2018-10-18T11:25:34.584Z,99132.03
2018-10-18T11:28:03.689Z,99132.58
2018-10-18T11:30:33.238Z,99125.55
2018-10-18T11:33:02.840Z,99126.39
2018-10-18T11:35:31.954Z,99123.92
2018-10-18T11:38:01.372Z,99118.40
2018-10-18T11:40:31.462Z,99122.47
2018-10-18T11:43:00.543Z,99115.83
2018-10-18T11:45:29.723Z,99112.75
2018-10-18T11:47:59.012Z,99110.22
2018-10-18T11:50:28.571Z,99110.24
2018-10-18T11:52:58.615Z,99110.61
2018-10-18T11:55:28.288Z,99110.28
2018-10-18T11:57:57.793Z,99107.52
2018-10-18T12:00:27.002Z,99106.31
2018-10-18T12:02:56.169Z,99100.77
2018-10-18T12:05:25.240Z,99098.52
2018-10-18T12:07:54.816Z,99096.16
2018-10-18T12:10:23.868Z,99094.27
2018-10-18T12:12:52.983Z,99093.03
2018-10-18T12:15:22.356Z,99088.99
2018-10-18T12:17:51.402Z,99085.64
2018-10-18T12:20:20.627Z,99088.28
2018-10-18T12:22:49.972Z,99085.48
2018-10-18T12:25:19.265Z,99082.16
2018-10-18T12:27:48.402Z,99087.25
2018-10-18T12:30:18.142Z,99086.58
2018-10-18T12:32:47.289Z,99082.19
2018-10-18T12:35:16.416Z,99086.76
2018-10-18T12:37:45.902Z,99090.95
2018-10-18T12:40:15.185Z,99086.41
2018-10-18T12:42:45.701Z,99087.19
2018-10-18T12:45:14.928Z,99095.05
2018-10-18T12:47:43.944Z,99086.48
2018-10-18T12:50:13.042Z,99082.02
2018-10-18T12:52:42.494Z,99081.23
2018-10-18T12:55:11.529Z,99081.51
2018-10-18T12:57:40.614Z,99086.05
2018-10-18T13:00:11.042Z,99077.92
2018-10-18T13:02:40.165Z,99074.58
2018-10-18T13:05:10.890Z,99079.01
2018-10-18T13:07:40.042Z,99079.50
2018-10-18T13:10:11.165Z,99077.31
2018-10-18T13:12:40.555Z,99074.64
2018-10-18T13:15:11.256Z,99074.05
2018-10-18T13:17:40.435Z,99070.48
2018-10-18T13:20:11.031Z,99064.36
2018-10-18T13:22:40.496Z,99064.81
2018-10-18T13:25:11.545Z,99070.62
2018-10-18T13:27:40.698Z,99060.84
2018-10-18T13:30:11.111Z,99064.67
2018-10-18T13:32:41.075Z,99068.55
2018-10-18T13:35:10.920Z,99072.70
2018-10-18T13:37:40.412Z,99066.11
2018-10-18T13:40:09.923Z,99066.14
2018-10-18T13:42:39.540Z,99068.14
2018-10-18T13:45:08.921Z,99070.59
2018-10-18T13:47:39.055Z,99065.94
2018-10-18T13:50:08.443Z,99069.09
2018-10-18T13:52:37.855Z,99069.96
2018-10-18T13:55:08.032Z,99069.59
2018-10-18T13:57:37.491Z,99067.12
2018-10-18T14:00:33.461Z,99070.83
2018-10-18T14:03:03.010Z,99068.91
2018-10-18T14:05:32.390Z,99065.23
2018-10-18T14:08:01.831Z,99068.34
2018-10-18T14:10:31.047Z,99056.78
2018-10-18T14:13:00.258Z,99061.59
2018-10-18T14:15:29.774Z,99051.03
2018-10-18T14:17:59.034Z,99056.50
2018-10-18T14:20:28.125Z,99056.73
2018-10-18T14:22:57.610Z,99062.75
2018-10-18T14:25:26.760Z,99062.83
2018-10-18T14:27:55.866Z,99056.12
2018-10-18T14:30:25.160Z,99061.05
2018-10-18T14:32:54.545Z,99045.79
2018-10-18T14:35:23.788Z,99056.02
2018-10-18T14:37:52.897Z,99054.23
2018-10-18T14:40:21.916Z,99044.70
2018-10-18T14:42:51.107Z,99052.88
2018-10-18T14:45:21.285Z,99047.95
2018-10-18T14:47:50.527Z,99047.42
2018-10-18T14:50:19.870Z,99053.43
2018-10-18T14:52:49.284Z,99047.59
2018-10-18T14:55:18.315Z,99049.34
2018-10-18T14:57:47.597Z,99051.86
2018-10-18T15:00:16.803Z,99048.56
2018-10-18T15:02:46.104Z,99054.75
2018-10-18T15:05:15.309Z,99052.83
2018-10-18T15:07:44.590Z,99051.02
2018-10-18T15:10:14.544Z,99055.19
2018-10-18T15:12:43.947Z,99054.48
2018-10-18T15:15:14.775Z,99057.15
2018-10-18T15:17:43.976Z,99060.13
2018-10-18T15:20:13.832Z,99056.91
2018-10-18T15:22:43.523Z,99057.00
2018-10-18T15:25:13.524Z,99057.42
2018-10-18T15:27:42.983Z,99062.27
2018-10-18T15:30:12.709Z,99063.09
2018-10-18T15:32:41.854Z,99062.81
2018-10-18T15:35:11.931Z,99068.34
2018-10-18T15:37:41.993Z,99078.09
2018-10-18T15:40:11.268Z,99070.58
2018-10-18T15:42:40.383Z,99076.33
2018-10-18T15:45:10.481Z,99080.16
2018-10-18T15:47:40.486Z,99082.91
2018-10-18T15:50:11.621Z,99081.18
2018-10-18T15:52:40.718Z,99085.67
2018-10-18T15:55:10.253Z,99083.30
2018-10-18T15:57:39.761Z,99091.08
2018-10-18T16:00:11.091Z,99090.12
2018-10-18T16:02:40.606Z,99086.62
2018-10-18T16:05:09.836Z,99093.67
2018-10-18T16:07:39.078Z,99095.73
2018-10-18T16:10:08.745Z,99094.55
2018-10-18T16:12:38.224Z,99094.59
2018-10-18T16:15:08.684Z,99096.34
2018-10-18T16:17:38.568Z,99094.08
2018-10-18T16:20:09.215Z,99096.40
2018-10-18T16:22:38.899Z,99099.16
2018-10-18T16:25:09.426Z,99100.28
2018-10-18T16:27:38.620Z,99099.88
2018-10-18T16:30:07.926Z,99109.19
2018-10-18T16:32:37.361Z,99104.25
2018-10-18T16:35:07.147Z,99100.77
2018-10-18T16:37:36.327Z,99099.36
2018-10-18T16:40:05.887Z,99103.50
2018-10-18T16:42:35.334Z,99113.80
2018-10-18T16:45:04.628Z,99107.75
2018-10-18T16:47:33.837Z,99105.93
2018-10-18T16:50:03.046Z,99110.61
2018-10-18T16:52:32.106Z,99115.81
2018-10-18T16:55:01.556Z,99112.94
2018-10-18T16:57:30.606Z,99114.35
2018-10-18T16:59:59.780Z,99116.06
2018-10-18T17:02:30.243Z,99108.99
2018-10-18T17:04:59.719Z,99109.05
2018-10-18T17:07:28.835Z,99114.12
2018-10-18T17:09:58.454Z,99116.08
2018-10-18T17:12:27.546Z,99120.67
2018-10-18T17:14:56.901Z,99127.04
2018-10-18T17:17:26.386Z,99121.50
2018-10-18T17:19:55.748Z,99122.36
2018-10-18T17:22:24.908Z,99129.88
2018-10-18T17:24:54.016Z,99130.41
2018-10-18T17:27:23.315Z,99130.36
2018-10-18T17:29:52.433Z,99131.53
2018-10-18T17:32:21.768Z,99137.69
2018-10-18T17:34:50.811Z,99138.45
2018-10-18T17:37:20.056Z,99135.22
2018-10-18T17:39:49.576Z,99145.10
2018-10-18T17:42:18.889Z,99141.23
2018-10-18T17:44:48.094Z,99146.88
2018-10-18T17:47:18.766Z,99153.16
2018-10-18T17:49:47.808Z,99143.14
2018-10-18T17:52:17.071Z,99147.59
2018-10-18T17:54:46.213Z,99151.73
2018-10-18T17:57:15.357Z,99153.68
2018-10-18T17:59:44.654Z,99152.98
2018-10-18T18:02:13.918Z,99154.95
2018-10-18T18:04:43.027Z,99161.20
2018-10-18T18:07:12.104Z,99162.47
2018-10-18T18:09:41.534Z,99162.19
2018-10-18T18:12:10.697Z,99161.14
2018-10-18T18:14:39.870Z,99164.94
2018-10-18T18:17:09.713Z,99164.78
2018-10-18T18:19:39.192Z,99158.80
2018-10-18T18:22:08.448Z,99163.37
2018-10-18T18:24:37.857Z,99160.30
2018-10-18T18:27:07.255Z,99165.15
2018-10-18T18:29:36.506Z,99157.06
2018-10-18T18:32:05.851Z,99157.27
2018-10-18T18:34:35.000Z,99159.30
2018-10-18T18:37:04.284Z,99162.87
2018-10-18T18:39:33.520Z,99161.49
2018-10-18T18:42:02.651Z,99162.06
2018-10-18T18:44:32.083Z,99166.75
2018-10-18T18:47:02.082Z,99174.64
2018-10-18T18:49:31.571Z,99173.04
2018-10-18T18:52:07.034Z,99174.35
2018-10-18T18:54:36.125Z,99179.13
2018-10-18T18:57:05.372Z,99174.22
2018-10-18T18:59:34.648Z,99181.46
2018-10-18T19:02:03.816Z,99188.95
2018-10-18T19:04:32.842Z,99181.80
2018-10-18T19:07:02.448Z,99187.10
2018-10-18T19:09:31.625Z,99189.28
2018-10-18T19:12:00.778Z,99190.04
2018-10-18T19:14:30.326Z,99199.08
2018-10-18T19:16:59.594Z,99199.16
2018-10-18T19:19:28.754Z,99202.36
2018-10-18T19:21:57.904Z,99202.53
2018-10-18T19:24:26.995Z,99204.58
2018-10-18T19:26:56.181Z,99205.66
2018-10-18T19:29:25.343Z,99207.17
2018-10-18T19:31:54.523Z,99210.38
2018-10-18T19:34:24.409Z,99208.24
2018-10-18T19:36:53.915Z,99203.51
2018-10-18T19:39:23.078Z,99203.16
2018-10-18T19:41:52.253Z,99202.12
2018-10-18T19:44:22.039Z,99202.96
2018-10-18T19:46:51.219Z,99198.77
2018-10-18T19:49:20.568Z,99194.70
2018-10-18T19:51:49.761Z,99209.37
2018-10-18T19:54:19.095Z,99201.96
2018-10-18T19:56:48.253Z,99211.63
2018-10-18T19:59:17.905Z,99204.76
2018-10-18T20:01:47.083Z,99204.09
2018-10-18T20:04:16.463Z,99205.92
2018-10-18T20:06:46.325Z,99208.59
2018-10-18T20:09:15.479Z,99208.24
2018-10-18T20:11:44.613Z,99208.66
2018-10-18T20:14:14.445Z,99208.27
2018-10-18T20:16:43.576Z,99209.01
2018-10-18T20:19:12.881Z,99202.13
2018-10-18T20:21:42.083Z,99198.95
2018-10-18T20:24:11.481Z,99200.30
2018-10-18T20:26:41.628Z,99208.03
2018-10-18T20:29:11.825Z,99206.61
2018-10-18T20:31:40.989Z,99204.30
2018-10-18T20:34:10.405Z,99204.11
2018-10-18T20:36:39.619Z,99203.27
2018-10-18T20:39:10.186Z,99207.55
2018-10-18T20:41:39.398Z,99201.91
2018-10-18T20:44:08.691Z,99200.91
2018-10-18T20:46:37.881Z,99204.56
2018-10-18T20:49:07.008Z,99207.28
2018-10-18T20:51:36.202Z,99202.81
2018-10-18T20:54:05.571Z,99201.70
2018-10-18T20:56:34.623Z,99205.19
2018-10-18T20:59:04.561Z,99202.41
2018-10-18T21:01:33.715Z,99205.63
2018-10-18T21:04:02.913Z,99199.91
2018-10-18T21:06:33.432Z,99208.63
2018-10-18T21:09:03.098Z,99201.59
2018-10-18T21:11:32.444Z,99203.20
2018-10-18T21:14:02.108Z,99202.80
2018-10-18T21:16:31.213Z,99203.13
2018-10-18T21:19:00.357Z,99199.21
2018-10-18T21:21:29.868Z,99200.83
2018-10-18T21:23:59.006Z,99205.67
2018-10-18T21:26:28.618Z,99203.82
2018-10-18T21:28:58.101Z,99204.85
2018-10-18T21:31:27.205Z,99202.88
2018-10-18T21:33:56.365Z,99199.88
2018-10-18T21:36:25.916Z,99202.55
2018-10-18T21:38:55.418Z,99209.00
2018-10-18T21:41:24.732Z,99210.61
2018-10-18T21:43:53.904Z,99207.32
2018-10-18T21:46:23.092Z,99205.59
2018-10-18T21:48:52.311Z,99207.44
2018-10-18T21:51:21.440Z,99210.44
2018-10-18T21:53:50.522Z,99211.51
2018-10-18T21:56:19.656Z,99213.06
2018-10-18T21:58:49.470Z,99214.63
2018-10-18T22:01:19.046Z,99206.63
2018-10-18T22:03:48.188Z,99210.49
2018-10-18T22:06:17.979Z,99210.09
2018-10-18T22:08:47.437Z,99203.00
2018-10-18T22:11:16.774Z,99192.95
2018-10-18T22:13:46.303Z,99195.84
2018-10-18T22:16:15.415Z,99193.63
2018-10-18T22:18:44.543Z,99194.16
2018-10-18T22:21:14.094Z,99178.31
2018-10-18T22:23:43.196Z,99195.47
2018-10-18T22:26:12.327Z,99197.73
2018-10-18T22:28:41.802Z,99199.29
2018-10-18T22:31:10.962Z,99194.77
2018-10-18T22:33:40.107Z,99198.92
2018-10-18T22:36:09.619Z,99196.33
2018-10-18T22:38:38.767Z,99196.74
2018-10-18T22:41:08.539Z,99194.31
2018-10-18T22:43:37.902Z,99198.22
2018-10-18T22:46:07.242Z,99196.73
2018-10-18T22:48:36.326Z,99195.81
2018-10-18T22:51:05.898Z,99203.81
2018-10-18T22:53:35.050Z,99194.72
2018-10-18T22:56:04.260Z,99199.83
2018-10-18T22:58:33.696Z,99201.21
2018-10-18T23:01:02.917Z,99197.12
2018-10-18T23:03:32.169Z,99191.60
2018-10-18T23:06:01.549Z,99189.83
2018-10-18T23:08:30.621Z,99192.84
2018-10-18T23:10:59.778Z,99185.90
2018-10-18T23:13:29.289Z,99189.26
2018-10-18T23:15:58.531Z,99190.14
2018-10-18T23:18:27.680Z,99189.61
2018-10-18T23:20:57.361Z,99190.08
2018-10-18T23:23:26.472Z,99194.71
2018-10-18T23:25:55.584Z,99193.80
2018-10-18T23:28:25.302Z,99194.63
2018-10-18T23:30:54.459Z,99203.19
2018-10-18T23:33:23.921Z,99195.23
2018-10-18T23:35:53.332Z,99195.67
2018-10-18T23:38:22.663Z,99192.87
2018-10-18T23:40:51.887Z,99196.22
2018-10-18T23:43:21.356Z,99193.63
2018-10-18T23:45:54.104Z,99200.39
2018-10-18T23:48:24.156Z,99202.53
2018-10-18T23:50:54.162Z,99191.44
2018-10-18T23:53:23.552Z,99197.34
2018-10-18T23:55:53.305Z,99201.70
2018-10-18T23:58:22.556Z,99200.63
